Airfield :
LOGIN :

Register | Disclaimer

   EN    FR    IT 

 










Legend :    VFR   Marginal VFR   IFR   Intensive IFR   Very Intensive IFR
Visi :
Ceiling :
>= 8 km
>= 3000ft
5 to 8 km
1000 to 3000 ft
1500m to 5 km
500 to 1000 ft
800 to 1500m
200 to 500 ft
< 800m
< 200 ft
Symbols :   Thunderstorms  Fog  Heavy snow  Heavy precipitations  Wind > 20 kt
SIGMETs :     Misc.  Thunderstorms  Icing  Turbulence  Mountain Waves  Volcanic Ashes






- Airport Elevation : 2731 ft
- IATA code : LPY


LFHP - Le Puy Loudes

CURRENT METAR :
  • 111430Z AUTO 01009KT 330V050 CAVOK 21/07 Q1023

EXPIRED METARs :
  • 111400Z AUTO 04011KT CAVOK 21/07 Q1023
  • 111330Z AUTO 01009KT 330V070 CAVOK 21/07 Q1023
  • 111300Z AUTO 01008KT 310V060 CAVOK 21/08 Q1023
  • 111230Z AUTO 35008KT 290V070 CAVOK 21/08 Q1023
  • 111200Z AUTO 01008KT 340V050 9999 BKN048 20/08 Q1023

Expired Forecast.



MET'MAP, your aeronautical weather chart ! - Copyright ORBIFLY December 2007 - Disclaimer

ORBIFLY MET'MAP TEAM :

Programming & Development : Alexandra Zaïnal
Concept & original design : Baudouin d'Aumeries
Assistance for programming : Marc-Olivier Méhu
Technical & hardware support : Manuel Goepfert

Contact : metmap@orbifly.com




SOURCES & CREDITS :

   NOAA